Time;durP1;ratioP1;P1;durP2;ratioP2;P2;SDS_P1;SDS_P2;PMS_P1;PMS_P2;Temp;Humidity;BMP_temperature;BMP_pressure;BME280_temperature;BME280_humidity;BME280_pressure;Samples;Min_cycle;Max_cycle;Signal;HPM_P1;HPM_P2
2022/08/31 00:06:02;;;;;;;;;;;17.40;99.90;;;;;;5073221;28;19916;-63
2022/08/31 00:08:28;;;;;;;;;;;17.40;99.90;;;;;;5073363;28;19946;-62
2022/08/31 00:10:54;;;;;;;;;;;17.40;99.90;;;;;;5073219;28;19912;-63
2022/08/31 00:13:20;;;;;;;;;;;17.30;99.90;;;;;;5073566;28;19915;-62
2022/08/31 00:15:46;;;;;;;;;;;17.30;99.90;;;;;;5073294;28;19912;-62
2022/08/31 00:18:12;;;;;;;;;;;17.30;99.90;;;;;;5073216;28;19916;-62
2022/08/31 00:20:38;;;;;;;;;;;17.20;99.90;;;;;;5073507;28;19913;-62
2022/08/31 00:23:04;;;;;;;;;;;17.20;99.90;;;;;;5073329;28;20374;-62
2022/08/31 00:25:31;;;;;;;;;;;17.20;99.90;;;;;;5073167;28;19909;-62
2022/08/31 00:27:56;;;;;;;;;;;17.20;99.90;;;;;;5073427;28;20142;-63
2022/08/31 00:30:22;;;;;;;;;;;17.20;99.90;;;;;;5073089;28;20305;-62
2022/08/31 00:32:47;;;;;;;;;;;17.20;99.90;;;;;;5055561;28;19995;-62
2022/08/31 00:35:13;;;;;;;;;;;17.20;99.90;;;;;;5073185;28;19915;-62
2022/08/31 00:37:38;;;;;;;;;;;17.20;99.90;;;;;;5073339;28;19909;-62
2022/08/31 00:40:04;;;;;;;;;;;17.30;99.90;;;;;;5073296;28;19944;-62
2022/08/31 00:42:29;;;;;;;;;;;17.30;99.90;;;;;;5073338;28;19943;-62
2022/08/31 00:44:55;;;;;;;;;;;17.30;99.90;;;;;;5073092;28;19909;-62
2022/08/31 00:47:20;;;;;;;;;;;17.30;99.90;;;;;;5073022;28;20429;-62
2022/08/31 00:49:50;;;;;;;;;;;17.30;99.90;;;;;;5072804;28;19916;-62
2022/08/31 00:52:18;;;;;;;;;;;17.30;99.90;;;;;;5073158;28;19958;-62
2022/08/31 00:54:46;;;;;;;;;;;17.30;99.90;;;;;;5072937;28;19938;-63
2022/08/31 00:57:12;;;;;;;;;;;17.30;99.90;;;;;;5073189;28;19977;-63
2022/08/31 00:59:39;;;;;;;;;;;17.20;99.90;;;;;;5076519;28;20393;-62
2022/08/31 01:02:06;;;;;;;;;;;17.20;99.90;;;;;;5076752;28;19983;-62
2022/08/31 01:04:32;;;;;;;;;;;17.20;99.90;;;;;;5076433;28;19908;-63
2022/08/31 01:06:57;;;;;;;;;;;17.10;99.90;;;;;;5076426;28;19997;-62
2022/08/31 01:09:24;;;;;;;;;;;17.00;99.90;;;;;;5076565;28;19908;-62
2022/08/31 01:11:50;;;;;;;;;;;17.00;99.90;;;;;;5076484;28;19913;-62
2022/08/31 01:14:15;;;;;;;;;;;16.90;99.90;;;;;;5076327;28;20290;-62
2022/08/31 01:16:44;;;;;;;;;;;16.90;99.90;;;;;;5076506;28;19912;-62
2022/08/31 01:19:13;;;;;;;;;;;16.80;99.90;;;;;;5076384;28;19908;-62
2022/08/31 01:21:43;;;;;;;;;;;16.80;99.90;;;;;;5076095;28;19915;-62
2022/08/31 01:24:09;;;;;;;;;;;16.80;99.90;;;;;;5076339;28;19958;-62
2022/08/31 01:26:36;;;;;;;;;;;16.70;99.90;;;;;;5076286;28;19913;-62
2022/08/31 01:29:03;;;;;;;;;;;16.70;99.90;;;;;;5076245;28;19919;-62
2022/08/31 01:31:31;;;;;;;;;;;16.60;99.90;;;;;;5075843;28;20290;-63
2022/08/31 01:33:57;;;;;;;;;;;16.60;99.90;;;;;;5075936;28;19908;-64
2022/08/31 01:36:23;;;;;;;;;;;16.60;99.90;;;;;;5076120;28;19909;-62
2022/08/31 01:38:49;;;;;;;;;;;16.50;99.90;;;;;;5076068;28;19909;-62
2022/08/31 01:41:15;;;;;;;;;;;16.50;99.90;;;;;;5076019;28;19908;-62
2022/08/31 01:43:40;;;;;;;;;;;16.50;99.90;;;;;;5075966;28;19908;-62
2022/08/31 01:46:08;;;;;;;;;;;16.50;99.90;;;;;;5057863;28;19967;-62
2022/08/31 01:48:34;;;;;;;;;;;16.40;99.90;;;;;;5075993;28;19931;-62
2022/08/31 01:51:00;;;;;;;;;;;16.40;99.90;;;;;;5075426;28;19920;-62
2022/08/31 01:53:26;;;;;;;;;;;16.30;99.90;;;;;;5075540;28;19962;-62
2022/08/31 01:55:51;;;;;;;;;;;16.30;99.90;;;;;;5075764;28;20309;-62
2022/08/31 01:58:17;;;;;;;;;;;16.30;99.90;;;;;;5057639;28;20382;-62
2022/08/31 02:00:42;;;;;;;;;;;16.20;99.90;;;;;;5075642;28;19955;-62
2022/08/31 02:03:08;;;;;;;;;;;16.30;99.90;;;;;;5075603;28;19913;-62
2022/08/31 02:05:34;;;;;;;;;;;16.20;99.90;;;;;;5075565;28;20387;-62
2022/08/31 02:08:00;;;;;;;;;;;16.20;99.90;;;;;;5057329;28;19908;-62
2022/08/31 02:10:26;;;;;;;;;;;16.10;99.90;;;;;;5075090;28;20453;-62
2022/08/31 02:12:51;;;;;;;;;;;16.10;99.90;;;;;;5075369;28;19908;-62
2022/08/31 02:15:17;;;;;;;;;;;16.10;99.90;;;;;;5075396;28;19909;-62
2022/08/31 02:17:42;;;;;;;;;;;16.10;99.90;;;;;;5057455;28;19909;-62
2022/08/31 02:20:09;;;;;;;;;;;16.00;99.90;;;;;;5075042;28;19913;-62
2022/08/31 02:22:34;;;;;;;;;;;16.00;99.90;;;;;;5075179;28;19915;-62
2022/08/31 02:25:00;;;;;;;;;;;16.00;99.90;;;;;;5074913;28;19912;-62
2022/08/31 02:27:25;;;;;;;;;;;15.90;99.90;;;;;;5075111;28;19958;-62
2022/08/31 02:29:51;;;;;;;;;;;15.90;99.90;;;;;;5075042;28;19999;-62
2022/08/31 02:32:16;;;;;;;;;;;15.80;99.90;;;;;;5074954;28;19912;-62
2022/08/31 02:34:43;;;;;;;;;;;15.80;99.90;;;;;;5074694;28;19970;-62
2022/08/31 02:37:09;;;;;;;;;;;15.80;99.90;;;;;;5074923;28;20421;-62
2022/08/31 02:39:34;;;;;;;;;;;15.80;99.90;;;;;;5074720;28;20003;-62
2022/08/31 02:42:00;;;;;;;;;;;15.80;99.90;;;;;;5074574;28;19908;-62
2022/08/31 02:44:25;;;;;;;;;;;15.80;99.90;;;;;;5074816;28;20321;-62
2022/08/31 02:46:51;;;;;;;;;;;15.70;99.90;;;;;;5074726;28;19908;-62
2022/08/31 02:49:16;;;;;;;;;;;15.70;99.90;;;;;;5074441;28;20393;-62
2022/08/31 02:51:42;;;;;;;;;;;15.60;99.90;;;;;;5074108;28;19966;-63
2022/08/31 02:54:08;;;;;;;;;;;15.60;99.90;;;;;;5074315;28;19908;-62
2022/08/31 02:56:33;;;;;;;;;;;15.50;99.90;;;;;;5074322;28;19909;-62
2022/08/31 02:58:59;;;;;;;;;;;15.50;99.90;;;;;;5056358;28;20053;-62
2022/08/31 03:01:25;;;;;;;;;;;15.50;99.90;;;;;;5074461;28;20278;-62
2022/08/31 03:03:51;;;;;;;;;;;15.50;99.90;;;;;;5074399;28;20355;-62
2022/08/31 03:06:18;;;;;;;;;;;15.40;99.90;;;;;;5074116;28;19909;-62
2022/08/31 03:08:43;;;;;;;;;;;15.40;99.90;;;;;;5074319;28;20302;-62
2022/08/31 03:11:09;;;;;;;;;;;15.30;99.90;;;;;;5073963;28;19919;-62
2022/08/31 03:13:35;;;;;;;;;;;15.30;99.90;;;;;;5074276;28;19948;-62
2022/08/31 03:16:01;;;;;;;;;;;15.20;99.90;;;;;;5074181;28;19931;-62
2022/08/31 03:18:26;;;;;;;;;;;15.20;99.90;;;;;;5074227;28;20359;-62
2022/08/31 03:20:52;;;;;;;;;;;15.20;99.90;;;;;;5073470;28;20351;-62
2022/08/31 03:23:17;;;;;;;;;;;15.20;99.90;;;;;;5073869;28;19908;-62
2022/08/31 03:25:43;;;;;;;;;;;15.20;99.90;;;;;;5073793;28;19912;-62
2022/08/31 03:28:08;;;;;;;;;;;15.10;99.90;;;;;;5074087;28;19915;-62
2022/08/31 03:30:34;;;;;;;;;;;15.10;99.90;;;;;;5073960;28;19919;-62
2022/08/31 03:32:59;;;;;;;;;;;15.10;99.90;;;;;;5073737;28;19916;-62
2022/08/31 03:35:25;;;;;;;;;;;15.10;99.90;;;;;;5073958;28;19908;-61
2022/08/31 03:37:51;;;;;;;;;;;15.10;99.90;;;;;;5073970;28;20377;-62
2022/08/31 03:40:16;;;;;;;;;;;15.10;99.90;;;;;;5073936;28;19999;-62
2022/08/31 03:42:43;;;;;;;;;;;15.10;99.90;;;;;;5073621;28;20409;-62
2022/08/31 03:45:09;;;;;;;;;;;15.10;99.90;;;;;;5073874;28;19912;-62
2022/08/31 03:47:35;;;;;;;;;;;15.00;99.90;;;;;;5073615;28;20278;-62
2022/08/31 03:50:03;;;;;;;;;;;15.00;99.90;;;;;;5073311;28;19951;-63
2022/08/31 03:52:28;;;;;;;;;;;15.00;99.90;;;;;;5073400;28;20336;-62
2022/08/31 03:54:54;;;;;;;;;;;15.00;99.90;;;;;;5055677;28;19909;-62
2022/08/31 03:57:19;;;;;;;;;;;15.00;99.90;;;;;;5073434;28;19908;-62
2022/08/31 03:59:45;;;;;;;;;;;15.00;99.90;;;;;;5073463;28;19916;-62
2022/08/31 04:02:10;;;;;;;;;;;15.00;99.90;;;;;;5073720;28;19909;-62
2022/08/31 04:04:36;;;;;;;;;;;15.00;99.90;;;;;;5073392;28;19915;-62
2022/08/31 04:07:01;;;;;;;;;;;15.00;99.90;;;;;;5073388;28;19938;-62
2022/08/31 04:09:27;;;;;;;;;;;15.00;99.90;;;;;;5073660;28;19958;-62
2022/08/31 04:11:52;;;;;;;;;;;15.00;99.90;;;;;;5073282;28;19913;-62
2022/08/31 04:14:18;;;;;;;;;;;15.00;99.90;;;;;;5073612;28;19919;-62
2022/08/31 04:16:43;;;;;;;;;;;15.00;99.90;;;;;;5073285;28;20374;-62
2022/08/31 04:19:10;;;;;;;;;;;15.00;99.90;;;;;;5073551;28;19909;-63
2022/08/31 04:21:35;;;;;;;;;;;15.00;99.90;;;;;;5073522;28;19958;-62
2022/08/31 04:24:01;;;;;;;;;;;15.10;99.90;;;;;;5073215;28;20379;-62
2022/08/31 04:26:28;;;;;;;;;;;15.00;99.90;;;;;;5055611;28;19908;-63
2022/08/31 04:28:54;;;;;;;;;;;15.00;99.90;;;;;;5073483;28;19915;-62
2022/08/31 04:31:20;;;;;;;;;;;15.00;99.90;;;;;;5073362;28;20054;-62
2022/08/31 04:33:46;;;;;;;;;;;15.00;99.90;;;;;;5075613;28;19916;-62
2022/08/31 04:36:12;;;;;;;;;;;15.00;99.90;;;;;;5076975;28;20274;-62
2022/08/31 04:38:40;;;;;;;;;;;15.00;99.90;;;;;;5077225;28;19919;-62
2022/08/31 04:41:08;;;;;;;;;;;15.00;99.90;;;;;;5077167;28;19931;-63
2022/08/31 04:43:34;;;;;;;;;;;15.00;99.90;;;;;;5077116;28;19934;-64
2022/08/31 04:46:01;;;;;;;;;;;15.00;99.90;;;;;;5076767;28;19920;-64
2022/08/31 04:48:26;;;;;;;;;;;15.00;99.90;;;;;;5076732;28;19970;-65
2022/08/31 04:50:58;;;;;;;;;;;14.90;99.90;;;;;;5076511;28;19920;-64
2022/08/31 04:53:23;;;;;;;;;;;15.00;99.90;;;;;;5076678;28;19915;-64
2022/08/31 04:55:49;;;;;;;;;;;15.00;99.90;;;;;;5076885;28;19909;-64
2022/08/31 04:58:16;;;;;;;;;;;15.00;99.90;;;;;;5076790;28;20328;-64
2022/08/31 05:00:42;;;;;;;;;;;15.00;99.90;;;;;;5076706;28;19912;-64
2022/08/31 05:03:08;;;;;;;;;;;15.10;99.90;;;;;;5076688;28;19991;-64
2022/08/31 05:05:36;;;;;;;;;;;15.10;99.90;;;;;;5058855;28;20368;-64
2022/08/31 05:08:02;;;;;;;;;;;15.10;99.90;;;;;;5058786;28;19908;-64
2022/08/31 05:10:27;;;;;;;;;;;15.10;99.90;;;;;;5076400;28;19963;-64
2022/08/31 05:12:53;;;;;;;;;;;15.20;99.90;;;;;;5076528;28;19958;-64
2022/08/31 05:15:18;;;;;;;;;;;15.30;99.90;;;;;;5076238;28;20282;-64
2022/08/31 05:17:44;;;;;;;;;;;15.30;99.90;;;;;;5076124;28;20383;-64
2022/08/31 05:20:09;;;;;;;;;;;15.40;99.90;;;;;;5076421;28;19908;-64
2022/08/31 05:22:35;;;;;;;;;;;15.50;99.90;;;;;;5076116;28;19915;-64
2022/08/31 05:25:00;;;;;;;;;;;15.50;99.90;;;;;;5076031;28;19915;-64
2022/08/31 05:27:26;;;;;;;;;;;15.60;99.90;;;;;;5076278;28;20062;-64
2022/08/31 05:29:51;;;;;;;;;;;15.60;99.90;;;;;;5041449;28;19908;-64
2022/08/31 05:32:17;;;;;;;;;;;15.60;99.90;;;;;;5076094;28;19919;-64
2022/08/31 05:34:42;;;;;;;;;;;15.60;99.90;;;;;;5076140;28;19908;-64
2022/08/31 05:37:07;;;;;;;;;;;15.60;99.90;;;;;;5075833;28;20282;-64
2022/08/31 05:39:33;;;;;;;;;;;15.60;99.90;;;;;;5075856;28;19916;-66
2022/08/31 05:41:58;;;;;;;;;;;15.60;99.90;;;;;;5075771;28;19909;-64
2022/08/31 05:44:25;;;;;;;;;;;15.70;99.90;;;;;;5075347;28;19958;-64
2022/08/31 05:46:51;;;;;;;;;;;15.60;99.90;;;;;;5075656;28;19908;-64
2022/08/31 05:49:16;;;;;;;;;;;15.60;99.90;;;;;;5075629;28;19908;-64
2022/08/31 05:51:42;;;;;;;;;;;15.70;99.90;;;;;;5075322;28;20003;-64
2022/08/31 05:54:09;;;;;;;;;;;15.70;99.90;;;;;;5075530;28;20007;-64
2022/08/31 05:56:35;;;;;;;;;;;15.70;99.90;;;;;;5075729;28;20282;-64
2022/08/31 05:59:01;;;;;;;;;;;15.70;99.90;;;;;;5075638;28;19909;-64
2022/08/31 06:01:29;;;;;;;;;;;15.70;99.90;;;;;;5075628;28;20419;-64
2022/08/31 06:03:55;;;;;;;;;;;15.70;99.90;;;;;;5075299;28;19908;-64
2022/08/31 06:06:21;;;;;;;;;;;15.80;99.90;;;;;;5075102;28;19999;-64
2022/08/31 06:08:50;;;;;;;;;;;15.90;99.90;;;;;;5057294;28;20367;-64
2022/08/31 06:11:18;;;;;;;;;;;16.00;99.90;;;;;;5057241;28;19971;-64
2022/08/31 06:13:44;;;;;;;;;;;16.00;99.90;;;;;;5057180;28;19908;-64
2022/08/31 06:16:10;;;;;;;;;;;16.00;99.90;;;;;;5075318;28;20370;-63
2022/08/31 06:18:39;;;;;;;;;;;16.20;99.90;;;;;;5075345;28;19916;-63
2022/08/31 06:21:08;;;;;;;;;;;16.30;99.90;;;;;;5075263;28;20336;-63
2022/08/31 06:23:35;;;;;;;;;;;16.40;99.90;;;;;;5075176;28;20359;-63
2022/08/31 06:26:01;;;;;;;;;;;16.40;99.90;;;;;;5075158;28;19992;-63
2022/08/31 06:28:28;;;;;;;;;;;16.40;99.90;;;;;;5075125;28;20385;-63
2022/08/31 06:30:54;;;;;;;;;;;16.50;99.90;;;;;;5074964;28;20374;-62
2022/08/31 06:33:19;;;;;;;;;;;16.50;99.90;;;;;;5074980;28;19916;-62
2022/08/31 06:35:46;;;;;;;;;;;16.60;99.90;;;;;;5074858;28;20335;-65
2022/08/31 06:38:12;;;;;;;;;;;16.70;99.90;;;;;;5071827;28;19954;-65
2022/08/31 06:40:37;;;;;;;;;;;16.70;99.90;;;;;;5074581;28;19909;-65
2022/08/31 06:43:03;;;;;;;;;;;16.70;99.90;;;;;;5068636;28;19912;-65
2022/08/31 06:45:29;;;;;;;;;;;16.60;99.90;;;;;;5070277;28;19923;-65
2022/08/31 06:47:57;;;;;;;;;;;16.80;99.90;;;;;;5074594;28;19908;-65
2022/08/31 06:50:22;;;;;;;;;;;16.90;99.90;;;;;;5074019;28;19920;-65
2022/08/31 06:52:48;;;;;;;;;;;17.10;99.90;;;;;;5071977;28;20378;-65
2022/08/31 06:55:13;;;;;;;;;;;17.30;99.90;;;;;;5071255;28;20291;-65
2022/08/31 06:57:39;;;;;;;;;;;17.40;99.90;;;;;;5070458;28;20297;-66
2022/08/31 07:00:05;;;;;;;;;;;17.60;99.90;;;;;;5072045;28;19916;-65
2022/08/31 07:02:31;;;;;;;;;;;17.60;99.90;;;;;;5064994;28;19912;-66
2022/08/31 07:04:56;;;;;;;;;;;17.70;99.90;;;;;;5072138;28;20375;-65
2022/08/31 07:07:21;;;;;;;;;;;17.70;99.90;;;;;;5073768;28;19931;-65
2022/08/31 07:09:47;;;;;;;;;;;17.90;99.90;;;;;;5039914;28;20003;-65
2022/08/31 07:12:13;;;;;;;;;;;18.00;99.90;;;;;;5073508;28;19913;-65
2022/08/31 07:14:38;;;;;;;;;;;18.20;99.90;;;;;;5056275;28;19912;-64
2022/08/31 07:17:04;;;;;;;;;;;18.60;99.90;;;;;;5073772;28;19908;-65
2022/08/31 07:19:29;;;;;;;;;;;19.10;99.90;;;;;;5073546;28;19908;-65
2022/08/31 07:21:56;;;;;;;;;;;20.30;99.90;;;;;;5073343;28;19909;-65
2022/08/31 07:24:24;;;;;;;;;;;21.10;99.90;;;;;;5073534;28;19913;-66
2022/08/31 07:26:52;;;;;;;;;;;21.60;99.90;;;;;;5073922;28;19935;-66
2022/08/31 07:29:19;;;;;;;;;;;22.40;99.90;;;;;;5073350;28;19912;-66
2022/08/31 07:31:45;;;;;;;;;;;22.80;99.90;;;;;;5055473;28;19919;-66
2022/08/31 07:34:12;;;;;;;;;;;23.00;99.90;;;;;;5065722;28;19913;-68
2022/08/31 07:42:11;;;;;;;;;;;22.70;99.90;;;;;;5072304;28;19970;-67
2022/08/31 07:44:40;;;;;;;;;;;22.60;99.90;;;;;;5063687;28;19909;-68
2022/08/31 07:47:10;;;;;;;;;;;22.60;99.90;;;;;;5055573;28;19927;-68
2022/08/31 07:49:36;;;;;;;;;;;22.80;99.90;;;;;;5056181;28;19909;-68
2022/08/31 07:52:02;;;;;;;;;;;22.70;99.90;;;;;;5073227;28;19917;-67
2022/08/31 07:54:28;;;;;;;;;;;22.80;99.90;;;;;;5072087;28;19977;-68
2022/08/31 07:56:59;;;;;;;;;;;22.40;99.90;;;;;;5072308;28;19960;-67
2022/08/31 07:59:25;;;;;;;;;;;22.10;99.90;;;;;;5071296;28;19913;-67
2022/08/31 08:01:54;;;;;;;;;;;22.10;99.90;;;;;;5072281;28;19966;-68
2022/08/31 08:04:24;;;;;;;;;;;22.30;99.90;;;;;;5073290;28;20383;-67
2022/08/31 08:06:50;;;;;;;;;;;22.30;99.90;;;;;;5056032;28;19909;-67
2022/08/31 08:09:16;;;;;;;;;;;22.10;99.90;;;;;;5057056;28;19916;-68
2022/08/31 08:11:43;;;;;;;;;;;21.80;99.90;;;;;;5075819;28;19917;-67
2022/08/31 08:14:09;;;;;;;;;;;22.60;99.90;;;;;;5059716;28;19912;-67
2022/08/31 08:16:34;;;;;;;;;;;23.50;99.90;;;;;;5077493;28;20007;-65
2022/08/31 08:19:00;;;;;;;;;;;23.80;99.90;;;;;;5077495;28;19908;-64
2022/08/31 08:21:26;;;;;;;;;;;23.50;99.90;;;;;;5077182;28;19913;-65
2022/08/31 08:23:51;;;;;;;;;;;22.50;99.90;;;;;;5075848;28;19999;-66
2022/08/31 08:26:17;;;;;;;;;;;22.30;99.90;;;;;;5077031;28;20282;-64
2022/08/31 08:28:43;;;;;;;;;;;22.00;99.90;;;;;;5074011;28;20267;-63
2022/08/31 08:31:13;;;;;;;;;;;21.90;99.90;;;;;;5076830;28;19927;-67
2022/08/31 08:33:38;;;;;;;;;;;22.20;99.90;;;;;;5076468;28;19913;-67
2022/08/31 08:36:06;;;;;;;;;;;22.10;99.90;;;;;;5074201;28;19966;-67
2022/08/31 08:38:32;;;;;;;;;;;21.80;99.90;;;;;;5076181;28;19918;-67
2022/08/31 08:40:58;;;;;;;;;;;21.70;99.90;;;;;;5073883;28;19912;-67
2022/08/31 08:43:29;;;;;;;;;;;21.50;99.90;;;;;;5076097;28;19955;-66
2022/08/31 08:45:55;;;;;;;;;;;21.50;99.90;;;;;;5075927;28;19917;-67
2022/08/31 08:48:25;;;;;;;;;;;21.10;99.90;;;;;;5041668;28;20343;-68
2022/08/31 08:50:52;;;;;;;;;;;21.40;99.90;;;;;;5076034;28;19928;-67
2022/08/31 08:53:20;;;;;;;;;;;21.60;99.90;;;;;;5058512;28;20379;-67
2022/08/31 08:55:45;;;;;;;;;;;21.90;99.90;;;;;;5076600;28;19908;-68
2022/08/31 08:58:12;;;;;;;;;;;22.10;99.90;;;;;;5076324;28;20366;-68
2022/08/31 09:00:45;;;;;;;;;;;21.80;99.90;;;;;;5058125;28;20359;-68
2022/08/31 09:03:16;;;;;;;;;;;22.10;99.90;;;;;;5075994;28;19995;-68
2022/08/31 09:06:00;;;;;;;;;;;22.80;99.90;;;;;;5068308;28;20283;-67
2022/08/31 09:08:34;;;;;;;;;;;22.90;99.90;;;;;;5070771;28;19912;-65
2022/08/31 09:14:06;;;;;;;;;;;24.00;99.90;;;;;;5070303;28;19917;-65
2022/08/31 09:16:46;;;;;;;;;;;24.80;99.90;;;;;;5070606;28;20385;-64
2022/08/31 09:19:14;;;;;;;;;;;25.40;99.90;;;;;;5069065;28;19919;-64
2022/08/31 09:21:43;;;;;;;;;;;25.70;99.90;;;;;;5069875;28;19921;-65
2022/08/31 09:24:10;;;;;;;;;;;26.50;99.90;;;;;;5073706;28;20383;-63
2022/08/31 09:26:56;;;;;;;;;;;27.50;98.20;;;;;;5070222;28;19971;-64
2022/08/31 09:29:23;;;;;;;;;;;27.30;97.00;;;;;;5067722;28;19912;-65
2022/08/31 09:31:58;;;;;;;;;;;27.00;96.50;;;;;;5069506;28;19963;-62
2022/08/31 09:34:28;;;;;;;;;;;26.90;96.40;;;;;;5050403;28;19913;-66
2022/08/31 09:37:14;;;;;;;;;;;27.10;96.80;;;;;;5067856;28;19913;-66
2022/08/31 09:39:41;;;;;;;;;;;26.30;96.60;;;;;;5050589;28;19931;-66
2022/08/31 09:42:13;;;;;;;;;;;25.60;98.60;;;;;;5058112;28;19917;-66
2022/08/31 09:44:40;;;;;;;;;;;26.20;98.30;;;;;;5066195;28;19958;-66
2022/08/31 09:47:26;;;;;;;;;;;25.80;98.10;;;;;;5070139;28;19909;-66
2022/08/31 09:49:53;;;;;;;;;;;26.20;97.60;;;;;;5069790;28;20386;-67
2022/08/31 09:55:12;;;;;;;;;;;27.10;96.70;;;;;;5069166;28;19916;-65
2022/08/31 09:55:13;;;;;;;;;;;26.70;97.00;;;;;;5069811;28;20310;-65
2022/08/31 09:58:01;;;;;;;;;;;26.00;97.40;;;;;;5070185;28;19908;-65
2022/08/31 10:00:51;;;;;;;;;;;25.60;97.90;;;;;;5069644;28;19913;-65
2022/08/31 10:03:21;;;;;;;;;;;25.40;98.40;;;;;;5049674;28;20260;-65
2022/08/31 10:05:49;;;;;;;;;;;25.20;99.60;;;;;;5050241;28;19944;-65
2022/08/31 10:08:29;;;;;;;;;;;26.30;97.30;;;;;;5049907;28;19959;-66
2022/08/31 10:10:57;;;;;;;;;;;27.60;96.40;;;;;;5069681;28;19912;-65
2022/08/31 10:13:33;;;;;;;;;;;27.70;95.10;;;;;;5086524;28;19921;-65
2022/08/31 10:16:01;;;;;;;;;;;28.40;94.00;;;;;;5089765;28;19923;-67
2022/08/31 10:18:30;;;;;;;;;;;27.80;94.40;;;;;;5089737;28;19916;-66
2022/08/31 10:21:04;;;;;;;;;;;27.90;94.00;;;;;;5090085;28;20341;-66
2022/08/31 10:23:34;;;;;;;;;;;28.30;94.00;;;;;;5085537;28;19908;-65
2022/08/31 10:26:06;;;;;;;;;;;27.70;93.60;;;;;;5076525;28;19957;-66
2022/08/31 10:28:36;;;;;;;;;;;26.70;95.00;;;;;;5076102;28;20389;-65
2022/08/31 10:31:06;;;;;;;;;;;26.60;95.80;;;;;;5076160;28;19908;-66
2022/08/31 10:36:32;;;;;;;;;;;27.30;94.40;;;;;;5058668;28;20329;-66
2022/08/31 10:38:58;;;;;;;;;;;26.70;95.20;;;;;;5075981;28;20410;-66
2022/08/31 10:41:27;;;;;;;;;;;26.30;96.10;;;;;;5076191;28;20006;-64
2022/08/31 10:44:00;;;;;;;;;;;25.80;96.30;;;;;;5057668;28;19916;-66
2022/08/31 10:46:29;;;;;;;;;;;25.90;96.60;;;;;;5057748;28;20398;-66
2022/08/31 10:48:56;;;;;;;;;;;25.70;96.60;;;;;;5076095;28;19915;-65
2022/08/31 10:51:41;;;;;;;;;;;25.90;96.70;;;;;;5075517;28;19909;-65
2022/08/31 10:54:27;;;;;;;;;;;25.30;97.10;;;;;;5055427;28;19909;-65
2022/08/31 10:57:13;;;;;;;;;;;24.90;97.60;;;;;;5055617;28;19916;-65
2022/08/31 10:59:43;;;;;;;;;;;24.80;98.10;;;;;;5055425;28;20396;-65
2022/08/31 11:02:28;;;;;;;;;;;24.60;98.80;;;;;;5064131;28;19966;-66
2022/08/31 11:05:00;;;;;;;;;;;24.50;98.70;;;;;;5064695;28;20390;-65
2022/08/31 11:07:34;;;;;;;;;;;24.40;98.80;;;;;;5074225;28;19912;-64
2022/08/31 11:10:06;;;;;;;;;;;24.70;98.70;;;;;;5075669;28;20347;-65
2022/08/31 11:12:41;;;;;;;;;;;24.60;98.80;;;;;;5074118;28;19928;-65
2022/08/31 11:18:19;;;;;;;;;;;24.00;99.10;;;;;;5070579;28;19912;-66
2022/08/31 11:21:04;;;;;;;;;;;24.00;99.40;;;;;;5069886;28;20298;-66
2022/08/31 11:23:37;;;;;;;;;;;24.10;99.40;;;;;;5051291;28;20265;-67
2022/08/31 11:26:24;;;;;;;;;;;24.40;98.90;;;;;;5066880;28;20355;-66
2022/08/31 11:28:58;;;;;;;;;;;25.10;97.90;;;;;;5069896;28;20450;-66
2022/08/31 11:31:26;;;;;;;;;;;25.40;96.80;;;;;;5067490;28;19959;-66
2022/08/31 11:33:56;;;;;;;;;;;25.20;96.80;;;;;;5070138;28;20015;-66
2022/08/31 11:36:41;;;;;;;;;;;25.30;96.60;;;;;;5063549;28;19917;-67
2022/08/31 11:39:09;;;;;;;;;;;25.50;96.40;;;;;;5064336;28;20355;-67
2022/08/31 11:44:40;;;;;;;;;;;26.30;95.80;;;;;;5070538;28;19912;-66
2022/08/31 11:47:06;;;;;;;;;;;27.10;93.50;;;;;;5066707;28;20387;-66
2022/08/31 11:49:48;;;;;;;;;;;26.50;93.60;;;;;;5051510;28;19913;-66
2022/08/31 11:52:28;;;;;;;;;;;26.20;94.10;;;;;;5063967;28;20356;-66
2022/08/31 11:54:57;;;;;;;;;;;25.80;94.40;;;;;;5047717;28;19982;-64
2022/08/31 11:57:24;;;;;;;;;;;26.30;93.90;;;;;;5048602;28;19909;-64
2022/08/31 11:59:50;;;;;;;;;;;26.50;93.40;;;;;;5048457;28;19917;-64
2022/08/31 12:04:59;;;;;;;;;;;26.70;93.10;;;;;;5069332;28;20378;-65
2022/08/31 12:07:28;;;;;;;;;;;26.70;92.70;;;;;;5048499;28;20318;-65
2022/08/31 12:10:02;;;;;;;;;;;26.20;93.20;;;;;;5050716;28;20004;-65
2022/08/31 12:12:38;;;;;;;;;;;26.20;93.30;;;;;;5048605;28;20482;-66
2022/08/31 12:15:23;;;;;;;;;;;25.40;93.70;;;;;;5050374;28;19913;-66
2022/08/31 12:18:03;;;;;;;;;;;25.70;94.10;;;;;;5047390;28;19944;-65
2022/08/31 12:23:38;;;;;;;;;;;25.40;93.20;;;;;;5090678;27;19913;-65
2022/08/31 12:26:07;;;;;;;;;;;24.90;94.60;;;;;;5090102;28;19916;-66
2022/08/31 12:28:52;;;;;;;;;;;25.20;93.90;;;;;;5096466;28;19970;-66
2022/08/31 12:31:18;;;;;;;;;;;25.60;93.40;;;;;;5109807;28;19912;-67
2022/08/31 12:34:03;;;;;;;;;;;25.70;93.00;;;;;;5096526;28;19912;-66
2022/08/31 12:36:32;;;;;;;;;;;25.90;92.10;;;;;;5090347;28;19912;-68
2022/08/31 12:39:17;;;;;;;;;;;26.10;92.50;;;;;;5088551;28;19913;-68
2022/08/31 12:41:46;;;;;;;;;;;26.40;91.80;;;;;;5089924;28;19923;-66
2022/08/31 12:44:18;;;;;;;;;;;26.50;91.90;;;;;;5090388;28;20283;-66
2022/08/31 12:46:56;;;;;;;;;;;26.30;91.40;;;;;;5097241;28;20363;-66
2022/08/31 12:49:28;;;;;;;;;;;26.40;92.10;;;;;;5090571;28;19919;-66
2022/08/31 12:52:01;;;;;;;;;;;26.10;91.70;;;;;;5089105;28;19915;-66
2022/08/31 12:54:47;;;;;;;;;;;26.10;92.60;;;;;;5089989;28;19909;-66
2022/08/31 12:57:16;;;;;;;;;;;25.70;91.60;;;;;;5089985;28;19953;-67
2022/08/31 12:59:50;;;;;;;;;;;25.50;92.50;;;;;;5089366;28;20363;-67
2022/08/31 13:02:16;;;;;;;;;;;25.70;92.80;;;;;;5088735;28;19924;-68
2022/08/31 13:04:42;;;;;;;;;;;25.80;92.10;;;;;;5089434;28;19913;-67
2022/08/31 13:07:12;;;;;;;;;;;25.70;91.60;;;;;;5123286;28;20317;-67
2022/08/31 13:09:39;;;;;;;;;;;25.90;91.70;;;;;;5089664;28;20328;-67
2022/08/31 13:12:05;;;;;;;;;;;26.20;91.40;;;;;;5090091;28;19913;-67
2022/08/31 13:14:39;;;;;;;;;;;26.00;91.80;;;;;;5088042;28;19989;-67
2022/08/31 13:17:14;;;;;;;;;;;26.30;91.50;;;;;;5092183;28;19913;-66
2022/08/31 13:19:46;;;;;;;;;;;26.10;91.70;;;;;;5101303;28;19947;-69
2022/08/31 13:22:15;;;;;;;;;;;25.30;92.50;;;;;;5091792;28;20401;-68
2022/08/31 13:24:46;;;;;;;;;;;24.70;93.20;;;;;;5087977;28;20331;-68
2022/08/31 13:27:21;;;;;;;;;;;24.20;93.50;;;;;;5087954;28;19912;-67
2022/08/31 13:29:52;;;;;;;;;;;24.10;93.80;;;;;;5117115;27;20367;-68
2022/08/31 13:32:33;;;;;;;;;;;24.00;94.10;;;;;;5085114;28;19916;-66
2022/08/31 13:35:02;;;;;;;;;;;24.00;93.80;;;;;;5073409;28;19919;-66
2022/08/31 13:37:34;;;;;;;;;;;23.80;94.20;;;;;;5075638;28;20367;-67
2022/08/31 13:40:09;;;;;;;;;;;23.90;94.30;;;;;;5102944;28;20275;-65
2022/08/31 13:42:49;;;;;;;;;;;23.90;93.60;;;;;;5075998;28;20283;-67
2022/08/31 13:48:03;;;;;;;;;;;24.00;93.90;;;;;;5070448;28;20264;-67
2022/08/31 13:50:31;;;;;;;;;;;24.50;93.30;;;;;;5069745;28;19913;-66
2022/08/31 13:52:59;;;;;;;;;;;24.60;92.60;;;;;;5086585;28;19912;-67
2022/08/31 13:55:29;;;;;;;;;;;24.90;92.10;;;;;;5069640;28;20385;-66
2022/08/31 13:57:59;;;;;;;;;;;25.20;91.70;;;;;;5069325;28;19913;-66
2022/08/31 14:00:33;;;;;;;;;;;25.60;90.80;;;;;;5070588;28;19909;-67
2022/08/31 14:03:27;;;;;;;;;;;25.80;91.20;;;;;;5052349;28;19909;-67
2022/08/31 14:06:14;;;;;;;;;;;25.70;90.50;;;;;;5070139;28;20453;-68
2022/08/31 14:08:51;;;;;;;;;;;26.00;90.40;;;;;;5068125;28;20473;-68
2022/08/31 14:11:19;;;;;;;;;;;26.20;90.00;;;;;;5070483;28;20310;-67
2022/08/31 14:13:54;;;;;;;;;;;26.40;89.20;;;;;;5052339;28;20329;-68
2022/08/31 14:16:31;;;;;;;;;;;26.50;88.90;;;;;;5070051;28;20424;-68
2022/08/31 14:19:00;;;;;;;;;;;26.50;88.00;;;;;;5059653;28;19912;-68
2022/08/31 14:21:45;;;;;;;;;;;26.40;88.50;;;;;;5084743;28;19939;-68
2022/08/31 14:24:11;;;;;;;;;;;26.00;88.90;;;;;;5068929;28;20264;-68
2022/08/31 14:26:42;;;;;;;;;;;26.00;89.70;;;;;;5053866;28;19917;-68
2022/08/31 14:29:09;;;;;;;;;;;25.70;89.70;;;;;;5057791;28;20402;-68
2022/08/31 14:31:51;;;;;;;;;;;25.50;90.30;;;;;;5068417;28;19909;-67
2022/08/31 14:34:34;;;;;;;;;;;25.20;90.90;;;;;;5067438;28;20317;-67
2022/08/31 14:37:06;;;;;;;;;;;25.10;91.60;;;;;;5058554;28;20015;-68
2022/08/31 14:39:37;;;;;;;;;;;24.60;91.80;;;;;;5068630;28;19915;-68
2022/08/31 14:42:04;;;;;;;;;;;24.50;92.20;;;;;;5085403;28;20263;-68
2022/08/31 14:44:32;;;;;;;;;;;24.50;92.20;;;;;;5085674;28;19916;-67
2022/08/31 14:47:00;;;;;;;;;;;24.60;91.70;;;;;;5081855;28;19927;-67
2022/08/31 14:49:27;;;;;;;;;;;24.80;91.70;;;;;;5090050;28;20021;-68
2022/08/31 14:51:55;;;;;;;;;;;24.80;91.70;;;;;;5089906;28;19995;-67
2022/08/31 14:54:20;;;;;;;;;;;24.70;91.80;;;;;;5089402;28;20256;-67
2022/08/31 14:56:48;;;;;;;;;;;24.70;91.70;;;;;;5089535;28;19957;-68